sensor_id;sensor_type;location;lat;lon;timestamp;pressure;altitude;pressure_sealevel;temperature;humidity
30873;BME280;17579;42.690;2.586;2023-05-01T00:02:33;97250.25;;;17.41;49.53
30873;BME280;17579;42.690;2.586;2023-05-01T00:04:58;97248.50;;;17.34;49.57
30873;BME280;17579;42.690;2.586;2023-05-01T00:07:27;97245.59;;;17.28;49.78
30873;BME280;17579;42.690;2.586;2023-05-01T00:12:43;97229.19;;;17.17;49.82
30873;BME280;17579;42.690;2.586;2023-05-01T00:15:15;97213.16;;;17.17;49.98
30873;BME280;17579;42.690;2.586;2023-05-01T00:17:52;97218.44;;;17.10;50.31
30873;BME280;17579;42.690;2.586;2023-05-01T00:20:41;97218.81;;;17.07;50.58
30873;BME280;17579;42.690;2.586;2023-05-01T00:23:06;97217.34;;;17.04;50.19
30873;BME280;17579;42.690;2.586;2023-05-01T00:25:39;97214.66;;;17.04;50.39
30873;BME280;17579;42.690;2.586;2023-05-01T00:28:17;97208.47;;;17.04;50.55
30873;BME280;17579;42.690;2.586;2023-05-01T00:30:51;97200.66;;;17.02;50.23
30873;BME280;17579;42.690;2.586;2023-05-01T00:33:22;97201.88;;;17.00;50.42
30873;BME280;17579;42.690;2.586;2023-05-01T00:35:50;97202.69;;;17.00;50.93
30873;BME280;17579;42.690;2.586;2023-05-01T00:38:46;97204.47;;;16.93;50.62
30873;BME280;17579;42.690;2.586;2023-05-01T00:41:19;97195.50;;;17.01;50.17
30873;BME280;17579;42.690;2.586;2023-05-01T00:43:45;97203.06;;;16.97;50.72
30873;BME280;17579;42.690;2.586;2023-05-01T00:46:17;97193.31;;;16.89;50.65
30873;BME280;17579;42.690;2.586;2023-05-01T00:48:46;97181.59;;;16.90;50.37
30873;BME280;17579;42.690;2.586;2023-05-01T00:51:15;97190.16;;;16.86;50.72
30873;BME280;17579;42.690;2.586;2023-05-01T00:53:52;97184.16;;;16.84;50.55
30873;BME280;17579;42.690;2.586;2023-05-01T00:56:30;97184.09;;;16.77;50.66
30873;BME280;17579;42.690;2.586;2023-05-01T00:59:06;97184.72;;;16.79;50.58
30873;BME280;17579;42.690;2.586;2023-05-01T01:01:37;97184.09;;;16.77;50.89
30873;BME280;17579;42.690;2.586;2023-05-01T01:04:31;97181.22;;;16.78;50.78
30873;BME280;17579;42.690;2.586;2023-05-01T01:13:19;97169.44;;;16.73;51.08
30873;BME280;17579;42.690;2.586;2023-05-01T01:22:11;97179.56;;;16.77;51.13
30873;BME280;17579;42.690;2.586;2023-05-01T01:27:54;97166.22;;;16.77;51.64
30873;BME280;17579;42.690;2.586;2023-05-01T01:35:56;97169.53;;;16.65;51.70
30873;BME280;17579;42.690;2.586;2023-05-01T01:38:45;97158.41;;;16.61;51.75
30873;BME280;17579;42.690;2.586;2023-05-01T01:41:21;97163.38;;;16.64;51.91
30873;BME280;17579;42.690;2.586;2023-05-01T01:43:57;97166.88;;;16.65;51.61
30873;BME280;17579;42.690;2.586;2023-05-01T01:46:36;97154.91;;;16.60;52.21
30873;BME280;17579;42.690;2.586;2023-05-01T01:49:12;97169.47;;;16.58;52.32
30873;BME280;17579;42.690;2.586;2023-05-01T01:52:26;97157.69;;;16.52;51.99
30873;BME280;17579;42.690;2.586;2023-05-01T01:55:10;97165.97;;;16.57;52.70
30873;BME280;17579;42.690;2.586;2023-05-01T01:57:48;97168.63;;;16.57;52.83
30873;BME280;17579;42.690;2.586;2023-05-01T02:03:53;97164.13;;;16.58;52.89
30873;BME280;17579;42.690;2.586;2023-05-01T02:06:06;97170.47;;;16.57;52.63
30873;BME280;17579;42.690;2.586;2023-05-01T02:08:36;97174.16;;;16.56;53.03
30873;BME280;17579;42.690;2.586;2023-05-01T02:11:10;97171.03;;;16.52;53.21
30873;BME280;17579;42.690;2.586;2023-05-01T02:13:41;97170.56;;;16.49;53.45
30873;BME280;17579;42.690;2.586;2023-05-01T02:16:11;97168.91;;;16.48;53.48
30873;BME280;17579;42.690;2.586;2023-05-01T02:18:42;97172.59;;;16.47;53.57
30873;BME280;17579;42.690;2.586;2023-05-01T02:21:17;97169.28;;;16.44;53.77
30873;BME280;17579;42.690;2.586;2023-05-01T02:23:44;97163.31;;;16.42;53.80
30873;BME280;17579;42.690;2.586;2023-05-01T02:26:17;97164.41;;;16.33;53.58
30873;BME280;17579;42.690;2.586;2023-05-01T02:28:52;97170.09;;;16.30;53.77
30873;BME280;17579;42.690;2.586;2023-05-01T02:31:41;97162.09;;;16.30;54.46
30873;BME280;17579;42.690;2.586;2023-05-01T02:34:11;97163.84;;;16.23;54.79
30873;BME280;17579;42.690;2.586;2023-05-01T02:36:40;97170.19;;;16.22;54.76
30873;BME280;17579;42.690;2.586;2023-05-01T02:39:19;97159.25;;;16.17;54.52
30873;BME280;17579;42.690;2.586;2023-05-01T02:41:48;97161.09;;;16.16;55.06
30873;BME280;17579;42.690;2.586;2023-05-01T02:44:16;97159.06;;;16.18;54.94
30873;BME280;17579;42.690;2.586;2023-05-01T02:46:47;97155.56;;;16.18;54.59
30873;BME280;17579;42.690;2.586;2023-05-01T02:49:27;97154.00;;;16.23;54.43
30873;BME280;17579;42.690;2.586;2023-05-01T02:51:57;97151.69;;;16.20;54.62
30873;BME280;17579;42.690;2.586;2023-05-01T02:54:26;97149.41;;;16.17;54.07
30873;BME280;17579;42.690;2.586;2023-05-01T03:02:56;97155.56;;;16.18;53.71
30873;BME280;17579;42.690;2.586;2023-05-01T03:05:27;97156.69;;;16.23;54.10
30873;BME280;17579;42.690;2.586;2023-05-01T03:08:13;97156.13;;;16.28;53.75
30873;BME280;17579;42.690;2.586;2023-05-01T03:10:45;97155.66;;;16.24;54.15
30873;BME280;17579;42.690;2.586;2023-05-01T03:13:24;97154.84;;;16.24;54.17
30873;BME280;17579;42.690;2.586;2023-05-01T03:19:09;97159.16;;;16.25;54.25
30873;BME280;17579;42.690;2.586;2023-05-01T03:21:35;97162.03;;;16.23;54.28
30873;BME280;17579;42.690;2.586;2023-05-01T03:24:10;97154.66;;;16.25;54.31
30873;BME280;17579;42.690;2.586;2023-05-01T03:26:36;97167.63;;;16.28;54.50
30873;BME280;17579;42.690;2.586;2023-05-01T03:29:04;97163.28;;;16.27;54.30
30873;BME280;17579;42.690;2.586;2023-05-01T03:31:34;97161.00;;;16.24;54.73
30873;BME280;17579;42.690;2.586;2023-05-01T03:34:09;97154.66;;;16.25;54.86
30873;BME280;17579;42.690;2.586;2023-05-01T03:36:44;97146.81;;;16.24;54.61
30873;BME280;17579;42.690;2.586;2023-05-01T03:39:21;97158.69;;;16.21;54.73
30873;BME280;17579;42.690;2.586;2023-05-01T03:41:47;97155.66;;;16.24;54.92
30873;BME280;17579;42.690;2.586;2023-05-01T03:44:15;97156.41;;;16.18;54.53
30873;BME280;17579;42.690;2.586;2023-05-01T03:46:41;97149.56;;;16.16;54.65
30873;BME280;17579;42.690;2.586;2023-05-01T03:49:11;97152.81;;;16.11;55.07
30873;BME280;17579;42.690;2.586;2023-05-01T03:51:40;97165.31;;;16.10;55.21
30873;BME280;17579;42.690;2.586;2023-05-01T03:54:06;97164.66;;;16.08;55.30
30873;BME280;17579;42.690;2.586;2023-05-01T03:56:34;97166.69;;;16.06;55.57
30873;BME280;17579;42.690;2.586;2023-05-01T03:59:08;97162.72;;;16.02;55.80
30873;BME280;17579;42.690;2.586;2023-05-01T04:01:34;97167.06;;;16.03;55.67
30873;BME280;17579;42.690;2.586;2023-05-01T04:04:00;97171.72;;;16.01;55.75
30873;BME280;17579;42.690;2.586;2023-05-01T04:06:29;97176.88;;;16.03;55.31
30873;BME280;17579;42.690;2.586;2023-05-01T04:09:33;97178.06;;;16.00;55.90
30873;BME280;17579;42.690;2.586;2023-05-01T04:11:41;97171.56;;;16.03;55.60
30873;BME280;17579;42.690;2.586;2023-05-01T04:14:12;97170.91;;;16.01;55.18
30873;BME280;17579;42.690;2.586;2023-05-01T04:16:51;97167.06;;;16.03;55.66
30873;BME280;17579;42.690;2.586;2023-05-01T04:19:19;97160.25;;;16.01;55.56
30873;BME280;17579;42.690;2.586;2023-05-01T04:21:50;97170.25;;;15.99;55.77
30873;BME280;17579;42.690;2.586;2023-05-01T04:24:16;97169.44;;;15.98;55.54
30873;BME280;17579;42.690;2.586;2023-05-01T04:26:45;97170.44;;;15.97;55.58
30873;BME280;17579;42.690;2.586;2023-05-01T04:29:19;97166.75;;;15.98;55.62
30873;BME280;17579;42.690;2.586;2023-05-01T04:31:47;97166.13;;;15.96;55.72
30873;BME280;17579;42.690;2.586;2023-05-01T04:34:18;97167.31;;;15.93;55.53
30873;BME280;17579;42.690;2.586;2023-05-01T04:36:50;97177.97;;;15.93;55.46
30873;BME280;17579;42.690;2.586;2023-05-01T04:42:16;97191.41;;;16.00;54.98
30873;BME280;17579;42.690;2.586;2023-05-01T04:44:44;97198.41;;;16.01;55.25
30873;BME280;17579;42.690;2.586;2023-05-01T04:47:10;97199.06;;;16.03;54.99
30873;BME280;17579;42.690;2.586;2023-05-01T04:49:38;97200.72;;;16.04;55.43
30873;BME280;17579;42.690;2.586;2023-05-01T04:52:26;97198.22;;;16.03;55.35
30873;BME280;17579;42.690;2.586;2023-05-01T04:54:52;97202.00;;;16.08;55.12
30873;BME280;17579;42.690;2.586;2023-05-01T04:57:31;97201.75;;;16.03;55.35
30873;BME280;17579;42.690;2.586;2023-05-01T05:00:13;97209.75;;;16.03;55.39
30873;BME280;17579;42.690;2.586;2023-05-01T05:05:25;97213.22;;;16.04;55.17
30873;BME280;17579;42.690;2.586;2023-05-01T05:07:54;97210.94;;;16.01;55.01
30873;BME280;17579;42.690;2.586;2023-05-01T05:10:22;97206.78;;;15.98;55.23
30873;BME280;17579;42.690;2.586;2023-05-01T05:12:51;97209.91;;;16.02;55.87
30873;BME280;17579;42.690;2.586;2023-05-01T05:15:28;97202.94;;;16.01;55.93
30873;BME280;17579;42.690;2.586;2023-05-01T05:18:01;97204.94;;;15.99;55.46
30873;BME280;17579;42.690;2.586;2023-05-01T05:20:29;97213.59;;;16.01;55.86
30873;BME280;17579;42.690;2.586;2023-05-01T05:23:04;97218.94;;;16.01;55.56
30873;BME280;17579;42.690;2.586;2023-05-01T05:25:29;97215.09;;;16.03;55.79
30873;BME280;17579;42.690;2.586;2023-05-01T05:28:01;97217.75;;;16.03;55.61
30873;BME280;17579;42.690;2.586;2023-05-01T05:30:48;97219.56;;;16.03;55.53
30873;BME280;17579;42.690;2.586;2023-05-01T05:36:31;97229.50;;;16.09;55.74
30873;BME280;17579;42.690;2.586;2023-05-01T05:39:13;97211.69;;;16.09;55.67
30873;BME280;17579;42.690;2.586;2023-05-01T05:41:45;97216.47;;;16.14;55.81
30873;BME280;17579;42.690;2.586;2023-05-01T05:44:20;97221.00;;;16.14;55.63
30873;BME280;17579;42.690;2.586;2023-05-01T05:46:46;97219.25;;;16.21;56.00
30873;BME280;17579;42.690;2.586;2023-05-01T05:49:12;97224.16;;;16.32;55.68
30873;BME280;17579;42.690;2.586;2023-05-01T05:51:41;97215.78;;;16.50;55.28
30873;BME280;17579;42.690;2.586;2023-05-01T05:54:06;97220.75;;;16.53;54.95
30873;BME280;17579;42.690;2.586;2023-05-01T05:56:35;97224.69;;;16.42;54.65
30873;BME280;17579;42.690;2.586;2023-05-01T05:59:01;97223.78;;;16.35;55.19
30873;BME280;17579;42.690;2.586;2023-05-01T06:01:31;97219.63;;;16.33;55.43
30873;BME280;17579;42.690;2.586;2023-05-01T06:03:59;97223.13;;;16.33;55.04
30873;BME280;17579;42.690;2.586;2023-05-01T06:06:36;97219.25;;;16.36;55.22
30873;BME280;17579;42.690;2.586;2023-05-01T06:09:10;97237.50;;;16.32;55.24
30873;BME280;17579;42.690;2.586;2023-05-01T06:11:47;97239.31;;;16.32;55.20
30873;BME280;17579;42.690;2.586;2023-05-01T06:14:16;97234.91;;;16.39;54.85
30873;BME280;17579;42.690;2.586;2023-05-01T06:16:44;97236.38;;;16.41;54.89
30873;BME280;17579;42.690;2.586;2023-05-01T06:19:26;97232.34;;;16.45;54.78
30873;BME280;17579;42.690;2.586;2023-05-01T06:21:52;97220.03;;;16.59;54.44
30873;BME280;17579;42.690;2.586;2023-05-01T06:24:56;97235.56;;;16.86;54.49
30873;BME280;17579;42.690;2.586;2023-05-01T06:27:22;97217.06;;;16.99;53.79
30873;BME280;17579;42.690;2.586;2023-05-01T06:29:53;97221.97;;;16.95;53.28
30873;BME280;17579;42.690;2.586;2023-05-01T06:32:19;97220.28;;;16.94;53.63
30873;BME280;17579;42.690;2.586;2023-05-01T06:34:47;97224.16;;;16.92;53.39
30873;BME280;17579;42.690;2.586;2023-05-01T06:37:19;97227.47;;;16.79;53.50
30873;BME280;17579;42.690;2.586;2023-05-01T06:39:48;97215.47;;;16.75;53.07
30873;BME280;17579;42.690;2.586;2023-05-01T06:42:16;97205.91;;;16.80;52.75
30873;BME280;17579;42.690;2.586;2023-05-01T06:44:45;97209.59;;;16.94;52.80
30873;BME280;17579;42.690;2.586;2023-05-01T06:47:13;97202.69;;;17.37;52.17
30873;BME280;17579;42.690;2.586;2023-05-01T06:49:39;97206.13;;;17.30;51.78
30873;BME280;17579;42.690;2.586;2023-05-01T06:52:10;97204.94;;;17.18;51.43
30873;BME280;17579;42.690;2.586;2023-05-01T06:55:06;97201.31;;;17.04;51.95
30873;BME280;17579;42.690;2.586;2023-05-01T06:57:45;97210.81;;;16.92;51.75
30873;BME280;17579;42.690;2.586;2023-05-01T07:00:33;97211.25;;;16.80;52.24
30873;BME280;17579;42.690;2.586;2023-05-01T07:05:48;97196.69;;;16.83;52.30
30873;BME280;17579;42.690;2.586;2023-05-01T07:08:19;97204.66;;;16.91;52.10
30873;BME280;17579;42.690;2.586;2023-05-01T07:10:48;97196.13;;;17.39;51.54
30873;BME280;17579;42.690;2.586;2023-05-01T07:13:15;97188.03;;;18.19;50.70
30873;BME280;17579;42.690;2.586;2023-05-01T07:15:46;97198.97;;;18.94;49.33
30873;BME280;17579;42.690;2.586;2023-05-01T07:18:13;97185.75;;;19.61;47.97
30873;BME280;17579;42.690;2.586;2023-05-01T07:23:45;97191.75;;;20.37;47.37
30873;BME280;17579;42.690;2.586;2023-05-01T07:26:11;97181.13;;;20.89;45.47
30873;BME280;17579;42.690;2.586;2023-05-01T07:31:39;97180.53;;;21.64;44.39
30873;BME280;17579;42.690;2.586;2023-05-01T07:34:06;97190.22;;;21.72;42.60
30873;BME280;17579;42.690;2.586;2023-05-01T07:36:34;97182.59;;;21.62;43.48
30873;BME280;17579;42.690;2.586;2023-05-01T07:39:03;97189.72;;;21.82;43.58
30873;BME280;17579;42.690;2.586;2023-05-01T07:41:49;97192.88;;;21.78;43.64
30873;BME280;17579;42.690;2.586;2023-05-01T07:44:17;97200.38;;;21.95;42.66
30873;BME280;17579;42.690;2.586;2023-05-01T07:46:46;97194.16;;;22.01;41.52
30873;BME280;17579;42.690;2.586;2023-05-01T07:49:19;97192.44;;;22.07;42.24
30873;BME280;17579;42.690;2.586;2023-05-01T07:52:10;97190.38;;;22.02;43.05
30873;BME280;17579;42.690;2.586;2023-05-01T07:54:38;97197.53;;;22.15;41.91
30873;BME280;17579;42.690;2.586;2023-05-01T07:57:10;97188.72;;;22.26;42.52
30873;BME280;17579;42.690;2.586;2023-05-01T07:59:38;97187.75;;;22.46;41.32
30873;BME280;17579;42.690;2.586;2023-05-01T08:02:23;97164.25;;;22.53;41.51
30873;BME280;17579;42.690;2.586;2023-05-01T08:04:51;97174.19;;;22.53;41.49
30873;BME280;17579;42.690;2.586;2023-05-01T08:07:20;97188.66;;;22.58;40.99
30873;BME280;17579;42.690;2.586;2023-05-01T08:09:48;97184.41;;;22.69;41.15
30873;BME280;17579;42.690;2.586;2023-05-01T08:12:28;97179.75;;;22.58;40.75
30873;BME280;17579;42.690;2.586;2023-05-01T08:15:17;97178.69;;;22.40;40.86
30873;BME280;17579;42.690;2.586;2023-05-01T08:18:51;97178.56;;;22.28;41.49
30873;BME280;17579;42.690;2.586;2023-05-01T08:22:03;97167.28;;;22.38;40.46
30873;BME280;17579;42.690;2.586;2023-05-01T08:24:21;97162.91;;;22.19;40.44
30873;BME280;17579;42.690;2.586;2023-05-01T08:26:47;97174.53;;;21.94;41.53
30873;BME280;17579;42.690;2.586;2023-05-01T08:29:36;97169.00;;;21.50;41.16
30873;BME280;17579;42.690;2.586;2023-05-01T08:32:11;97169.94;;;20.92;42.31
30873;BME280;17579;42.690;2.586;2023-05-01T08:37:58;97159.81;;;20.87;43.45
30873;BME280;17579;42.690;2.586;2023-05-01T08:41:07;97157.75;;;20.89;43.34
30873;BME280;17579;42.690;2.586;2023-05-01T08:44:12;97148.88;;;20.89;43.29
30873;BME280;17579;42.690;2.586;2023-05-01T08:46:57;97142.78;;;21.00;43.58
30873;BME280;17579;42.690;2.586;2023-05-01T08:52:34;97148.88;;;20.89;43.57
30873;BME280;17579;42.690;2.586;2023-05-01T08:55:12;97154.03;;;20.90;43.70
30873;BME280;17579;42.690;2.586;2023-05-01T08:57:46;97153.19;;;20.90;43.80
30873;BME280;17579;42.690;2.586;2023-05-01T09:00:17;97157.34;;;20.86;43.61
30873;BME280;17579;42.690;2.586;2023-05-01T09:03:05;97166.69;;;20.76;43.88
30873;BME280;17579;42.690;2.586;2023-05-01T09:05:55;97161.03;;;20.91;43.74
30873;BME280;17579;42.690;2.586;2023-05-01T09:08:27;97168.34;;;20.77;42.88
30873;BME280;17579;42.690;2.586;2023-05-01T09:11:13;97172.91;;;20.64;43.29
30873;BME280;17579;42.690;2.586;2023-05-01T09:13:52;97163.19;;;20.69;43.57
30873;BME280;17579;42.690;2.586;2023-05-01T09:16:30;97174.75;;;20.70;43.26
30873;BME280;17579;42.690;2.586;2023-05-01T09:19:19;97182.81;;;20.83;43.00
30873;BME280;17579;42.690;2.586;2023-05-01T09:22:02;97182.75;;;20.90;43.70
30873;BME280;17579;42.690;2.586;2023-05-01T09:24:53;97194.75;;;20.94;43.35
30873;BME280;17579;42.690;2.586;2023-05-01T09:27:20;97183.72;;;21.09;42.99
30873;BME280;17579;42.690;2.586;2023-05-01T09:29:53;97190.75;;;21.10;42.24
30873;BME280;17579;42.690;2.586;2023-05-01T09:32:23;97193.44;;;21.10;42.08
30873;BME280;17579;42.690;2.586;2023-05-01T09:34:56;97209.13;;;21.13;41.89
30873;BME280;17579;42.690;2.586;2023-05-01T09:37:52;97212.31;;;20.97;42.76
30873;BME280;17579;42.690;2.586;2023-05-01T09:40:26;97222.09;;;20.77;43.34
30873;BME280;17579;42.690;2.586;2023-05-01T09:43:02;97216.94;;;20.76;43.69
30873;BME280;17579;42.690;2.586;2023-05-01T09:45:33;97221.69;;;20.74;43.49
30873;BME280;17579;42.690;2.586;2023-05-01T09:50:35;97234.91;;;20.55;43.86
30873;BME280;17579;42.690;2.586;2023-05-01T09:53:04;97225.44;;;20.46;43.27
30873;BME280;17579;42.690;2.586;2023-05-01T09:56:01;97232.91;;;20.37;44.22
30873;BME280;17579;42.690;2.586;2023-05-01T09:58:36;97234.72;;;20.43;43.60
30873;BME280;17579;42.690;2.586;2023-05-01T10:01:13;97224.38;;;20.54;43.87
30873;BME280;17579;42.690;2.586;2023-05-01T10:04:01;97239.47;;;20.55;43.43
30873;BME280;17579;42.690;2.586;2023-05-01T10:09:29;97246.03;;;20.86;42.56
30873;BME280;17579;42.690;2.586;2023-05-01T10:12:24;97252.88;;;20.88;43.60
30873;BME280;17579;42.690;2.586;2023-05-01T10:18:15;97242.53;;;20.92;43.23
30873;BME280;17579;42.690;2.586;2023-05-01T10:20:43;97245.41;;;20.97;43.54
30873;BME280;17579;42.690;2.586;2023-05-01T10:23:33;97233.19;;;21.01;43.01
30873;BME280;17579;42.690;2.586;2023-05-01T10:26:00;97228.88;;;20.93;43.65
30873;BME280;17579;42.690;2.586;2023-05-01T10:28:39;97229.69;;;20.94;43.18
30873;BME280;17579;42.690;2.586;2023-05-01T10:31:29;97241.69;;;20.98;43.26
30873;BME280;17579;42.690;2.586;2023-05-01T10:51:09;97222.34;;;21.67;41.61
30873;BME280;17579;42.690;2.586;2023-05-01T10:53:46;97236.81;;;21.72;41.87
30873;BME280;17579;42.690;2.586;2023-05-01T10:59:09;97222.91;;;21.75;41.91
30873;BME280;17579;42.690;2.586;2023-05-01T11:01:45;97230.22;;;21.93;40.90
30873;BME280;17579;42.690;2.586;2023-05-01T11:12:04;97224.84;;;21.93;41.25
30873;BME280;17579;42.690;2.586;2023-05-01T11:15:09;97227.31;;;21.95;40.50
30873;BME280;17579;42.690;2.586;2023-05-01T11:20:00;97236.94;;;21.84;40.10
30873;BME280;17579;42.690;2.586;2023-05-01T11:22:38;97225.75;;;21.80;40.00
30873;BME280;17579;42.690;2.586;2023-05-01T11:27:49;97224.97;;;21.73;39.73
30873;BME280;17579;42.690;2.586;2023-05-01T11:30:24;97213.44;;;21.66;39.79
30873;BME280;17579;42.690;2.586;2023-05-01T11:33:06;97210.53;;;21.68;40.41
30873;BME280;17579;42.690;2.586;2023-05-01T11:38:27;97203.38;;;21.87;39.42
30873;BME280;17579;42.690;2.586;2023-05-01T11:40:59;97194.31;;;21.81;40.02
30873;BME280;17579;42.690;2.586;2023-05-01T11:43:25;97192.41;;;21.82;39.76
30873;BME280;17579;42.690;2.586;2023-05-01T11:45:53;97186.78;;;21.90;39.35
30873;BME280;17579;42.690;2.586;2023-05-01T11:48:20;97176.38;;;21.93;39.00
30873;BME280;17579;42.690;2.586;2023-05-01T11:50:49;97179.19;;;22.05;38.83
30873;BME280;17579;42.690;2.586;2023-05-01T11:53:21;97182.97;;;21.97;39.61
30873;BME280;17579;42.690;2.586;2023-05-01T11:55:49;97161.53;;;22.09;39.39
30873;BME280;17579;42.690;2.586;2023-05-01T12:04:22;97187.53;;;22.22;38.92
30873;BME280;17579;42.690;2.586;2023-05-01T12:06:57;97181.84;;;22.30;39.05
30873;BME280;17579;42.690;2.586;2023-05-01T12:09:39;97176.09;;;22.27;38.80
30873;BME280;17579;42.690;2.586;2023-05-01T12:12:21;97178.84;;;22.20;39.08
30873;BME280;17579;42.690;2.586;2023-05-01T12:15:03;97189.22;;;22.17;39.08
30873;BME280;17579;42.690;2.586;2023-05-01T12:17:43;97193.09;;;22.27;39.32
30873;BME280;17579;42.690;2.586;2023-05-01T12:20:11;97182.50;;;22.33;37.75
30873;BME280;17579;42.690;2.586;2023-05-01T12:25:28;97188.91;;;22.31;38.86
30873;BME280;17579;42.690;2.586;2023-05-01T12:28:11;97180.13;;;22.43;38.93
30873;BME280;17579;42.690;2.586;2023-05-01T12:30:41;97178.63;;;22.47;38.66
30873;BME280;17579;42.690;2.586;2023-05-01T12:38:31;97189.78;;;23.06;37.73
30873;BME280;17579;42.690;2.586;2023-05-01T12:41:08;97187.91;;;23.07;38.59
30873;BME280;17579;42.690;2.586;2023-05-01T12:43:38;97190.88;;;23.35;37.37
30873;BME280;17579;42.690;2.586;2023-05-01T12:46:13;97174.63;;;23.54;37.22
30873;BME280;17579;42.690;2.586;2023-05-01T12:48:46;97179.44;;;23.94;35.66
30873;BME280;17579;42.690;2.586;2023-05-01T12:51:20;97178.16;;;24.20;37.07
30873;BME280;17579;42.690;2.586;2023-05-01T12:53:53;97199.69;;;24.75;35.24
30873;BME280;17579;42.690;2.586;2023-05-01T12:56:23;97185.38;;;25.15;33.08
30873;BME280;17579;42.690;2.586;2023-05-01T12:58:58;97194.66;;;25.19;32.60
30873;BME280;17579;42.690;2.586;2023-05-01T13:01:27;97204.31;;;25.15;32.89
30873;BME280;17579;42.690;2.586;2023-05-01T13:03:55;97192.53;;;25.21;32.13
30873;BME280;17579;42.690;2.586;2023-05-01T13:06:38;97198.78;;;25.21;33.08
30873;BME280;17579;42.690;2.586;2023-05-01T13:09:06;97189.69;;;25.28;33.54
30873;BME280;17579;42.690;2.586;2023-05-01T13:14:24;97212.00;;;25.47;32.71
30873;BME280;17579;42.690;2.586;2023-05-01T13:17:10;97211.56;;;25.38;33.84
30873;BME280;17579;42.690;2.586;2023-05-01T13:19:57;97215.28;;;25.49;33.52
30873;BME280;17579;42.690;2.586;2023-05-01T13:22:37;97210.56;;;25.56;33.54
30873;BME280;17579;42.690;2.586;2023-05-01T13:25:19;97202.97;;;25.87;33.38
30873;BME280;17579;42.690;2.586;2023-05-01T13:27:51;97190.97;;;26.00;33.24
30873;BME280;17579;42.690;2.586;2023-05-01T13:30:49;97199.25;;;26.05;33.79
30873;BME280;17579;42.690;2.586;2023-05-01T13:33:17;97205.31;;;26.12;32.74
30873;BME280;17579;42.690;2.586;2023-05-01T13:35:55;97201.53;;;25.38;33.82
30873;BME280;17579;42.690;2.586;2023-05-01T13:38:21;97206.63;;;24.59;35.51
30873;BME280;17579;42.690;2.586;2023-05-01T13:40:49;97195.31;;;24.26;36.00
30873;BME280;17579;42.690;2.586;2023-05-01T13:43:25;97194.16;;;24.58;35.54
30873;BME280;17579;42.690;2.586;2023-05-01T13:45:56;97190.13;;;24.84;35.32
30873;BME280;17579;42.690;2.586;2023-05-01T13:48:32;97183.75;;;25.02;32.49
30873;BME280;17579;42.690;2.586;2023-05-01T13:51:08;97185.75;;;25.06;32.82
30873;BME280;17579;42.690;2.586;2023-05-01T13:53:34;97195.56;;;25.36;32.00
30873;BME280;17579;42.690;2.586;2023-05-01T13:59:20;97186.66;;;25.53;31.48
30873;BME280;17579;42.690;2.586;2023-05-01T14:04:59;97184.03;;;25.29;31.65
30873;BME280;17579;42.690;2.586;2023-05-01T14:05:05;97183.47;;;25.56;31.47
30873;BME280;17579;42.690;2.586;2023-05-01T14:07:27;97182.47;;;25.04;31.82
30873;BME280;17579;42.690;2.586;2023-05-01T14:12:55;97179.00;;;24.80;33.00
30873;BME280;17579;42.690;2.586;2023-05-01T14:15:50;97178.88;;;24.75;33.17
30873;BME280;17579;42.690;2.586;2023-05-01T14:18:19;97178.78;;;24.70;33.01
30873;BME280;17579;42.690;2.586;2023-05-01T14:20:57;97180.97;;;24.49;33.97
30873;BME280;17579;42.690;2.586;2023-05-01T14:23:31;97185.00;;;24.23;34.46
30873;BME280;17579;42.690;2.586;2023-05-01T14:26:48;97193.09;;;24.11;34.57
30873;BME280;17579;42.690;2.586;2023-05-01T14:28:58;97191.53;;;23.92;35.39
30873;BME280;17579;42.690;2.586;2023-05-01T14:31:26;97194.75;;;23.70;35.71
30873;BME280;17579;42.690;2.586;2023-05-01T14:34:02;97188.91;;;23.43;36.08
30873;BME280;17579;42.690;2.586;2023-05-01T14:36:36;97202.31;;;23.00;36.31
30873;BME280;17579;42.690;2.586;2023-05-01T14:39:34;97198.34;;;22.84;37.58
30873;BME280;17579;42.690;2.586;2023-05-01T14:42:04;97194.91;;;22.77;38.26
30873;BME280;17579;42.690;2.586;2023-05-01T14:44:45;97190.78;;;22.75;37.70
30873;BME280;17579;42.690;2.586;2023-05-01T14:47:18;97208.88;;;22.67;37.42
30873;BME280;17579;42.690;2.586;2023-05-01T14:49:50;97197.72;;;22.64;37.58
30873;BME280;17579;42.690;2.586;2023-05-01T14:52:18;97185.44;;;22.68;37.31
30873;BME280;17579;42.690;2.586;2023-05-01T14:54:51;97194.22;;;22.63;37.83
30873;BME280;17579;42.690;2.586;2023-05-01T15:00:14;97179.13;;;22.93;36.82
30873;BME280;17579;42.690;2.586;2023-05-01T15:02:58;97185.00;;;22.90;36.76
30873;BME280;17579;42.690;2.586;2023-05-01T15:05:37;97179.38;;;22.91;35.72
30873;BME280;17579;42.690;2.586;2023-05-01T15:08:21;97185.31;;;22.81;36.38
30873;BME280;17579;42.690;2.586;2023-05-01T15:11:18;97175.03;;;22.72;36.17
30873;BME280;17579;42.690;2.586;2023-05-01T15:13:45;97170.53;;;22.84;35.79
30873;BME280;17579;42.690;2.586;2023-05-01T15:16:13;97176.78;;;22.84;35.67
30873;BME280;17579;42.690;2.586;2023-05-01T15:18:49;97181.78;;;22.81;36.40
30873;BME280;17579;42.690;2.586;2023-05-01T15:21:31;97177.13;;;22.88;36.54
30873;BME280;17579;42.690;2.586;2023-05-01T15:24:01;97175.34;;;22.82;36.00
30873;BME280;17579;42.690;2.586;2023-05-01T15:26:33;97175.78;;;22.79;36.59
30873;BME280;17579;42.690;2.586;2023-05-01T15:29:18;97175.28;;;22.70;36.26
30873;BME280;17579;42.690;2.586;2023-05-01T15:31:46;97181.88;;;22.74;36.37
30873;BME280;17579;42.690;2.586;2023-05-01T15:34:14;97188.22;;;22.80;36.24
30873;BME280;17579;42.690;2.586;2023-05-01T15:36:51;97192.94;;;22.84;36.39
30873;BME280;17579;42.690;2.586;2023-05-01T15:39:19;97190.91;;;22.98;36.60
30873;BME280;17579;42.690;2.586;2023-05-01T15:42:04;97182.97;;;22.85;36.15
30873;BME280;17579;42.690;2.586;2023-05-01T15:44:42;97186.72;;;22.84;36.03
30873;BME280;17579;42.690;2.586;2023-05-01T15:47:34;97188.75;;;22.89;36.07
30873;BME280;17579;42.690;2.586;2023-05-01T15:49:59;97189.56;;;22.89;36.55
30873;BME280;17579;42.690;2.586;2023-05-01T15:52:34;97184.41;;;22.88;36.41